Berlin, New York
Current Conditions -  °F | °C
As of 6:52 PM on Sunday 23 Nov 2014 (Local Time) from KAQW Reporting Station
Few Clouds Few Clouds  
Wind Chill: 41°   Ceiling: Unl
Heat Index: 45°   Visibility: 10mi
Dew Point: 37°   Wind: 8mph
Humidity: 74%   Direction: 100°E
Pressure: 30.07"   Gusts: NA
Location:  42.69°N, 73.37°W
Report Text: KAQW 232352Z AUTO 10007KT 10SM FEW100 07/03 A3007 RMK AO2 SLP188 T00720028 10133 20067 58002
Loading
Personal Weather Stations






























Interactive Weather Map New forecast layout! Learn more

10-Day Weather Forecast

Advertisements
Track Severe Weather on mobile